createdAt,value
2023-05-08T00:00:14.729Z,83.74
2023-05-08T00:02:43.263Z,84.00
2023-05-08T00:05:11.077Z,83.75
2023-05-08T00:07:38.885Z,84.01
2023-05-08T00:10:10.783Z,83.96
2023-05-08T00:12:39.257Z,84.07
2023-05-08T00:15:08.045Z,84.29
2023-05-08T00:17:37.588Z,84.33
2023-05-08T00:20:07.123Z,84.30
2023-05-08T00:22:34.817Z,84.33
2023-05-08T00:25:03.147Z,84.58
2023-05-08T00:27:32.403Z,84.81
2023-05-08T00:30:01.490Z,84.45
2023-05-08T00:32:30.046Z,84.58
2023-05-08T00:51:55.405Z,85.92
2023-05-08T00:54:23.496Z,85.95
2023-05-08T00:56:54.618Z,86.01
2023-05-08T00:59:23.202Z,85.88
2023-05-08T01:01:51.838Z,86.37
2023-05-08T01:04:22.084Z,86.38
2023-05-08T01:06:50.331Z,86.08
2023-05-08T01:09:19.366Z,86.30
2023-05-08T01:11:53.304Z,86.36
2023-05-08T01:14:25.959Z,86.47
2023-05-08T01:16:59.648Z,86.85
2023-05-08T01:19:54.476Z,87.00
2023-05-08T01:22:40.252Z,87.01
2023-05-08T01:25:38.374Z,87.28
2023-05-08T01:28:55.732Z,87.46
2023-05-08T01:31:32.405Z,87.33
2023-05-08T01:34:07.722Z,87.49
2023-05-08T01:36:42.517Z,87.88
2023-05-08T01:39:37.456Z,88.13
2023-05-08T01:42:08.950Z,88.44
2023-05-08T01:44:44.609Z,88.57
2023-05-08T01:47:16.389Z,88.95
2023-05-08T01:49:47.069Z,88.86
2023-05-08T01:52:18.572Z,89.09
2023-05-08T01:54:51.182Z,89.15
2023-05-08T01:57:20.821Z,89.56
2023-05-08T01:59:50.917Z,89.41
2023-05-08T02:02:19.961Z,89.58
2023-05-08T02:04:50.322Z,89.82
2023-05-08T02:07:18.479Z,90.18
2023-05-08T02:09:49.326Z,90.44
2023-05-08T02:12:18.368Z,90.20
2023-05-08T02:14:49.073Z,90.18
2023-05-08T02:17:18.556Z,90.28
2023-05-08T02:19:50.621Z,90.40
2023-05-08T02:22:22.383Z,90.62
2023-05-08T02:24:56.192Z,90.69
2023-05-08T02:27:26.904Z,90.80
2023-05-08T02:29:56.177Z,91.15
2023-05-08T02:32:26.606Z,91.12
2023-05-08T02:35:03.053Z,91.34
2023-05-08T02:37:36.387Z,91.06
2023-05-08T02:40:07.350Z,91.32
2023-05-08T02:42:39.468Z,91.25
2023-05-08T02:45:12.136Z,91.16
2023-05-08T02:47:47.118Z,91.39
2023-05-08T02:50:24.407Z,91.48
2023-05-08T02:52:55.644Z,91.65
2023-05-08T02:55:34.801Z,92.06
2023-05-08T02:58:13.019Z,92.24
2023-05-08T03:00:46.158Z,92.36
2023-05-08T03:03:20.454Z,92.58
2023-05-08T03:05:53.548Z,92.50
2023-05-08T03:08:26.765Z,92.72
2023-05-08T03:10:58.859Z,92.35
2023-05-08T03:14:17.349Z,92.46
2023-05-08T03:16:48.565Z,93.04
2023-05-08T03:19:23.385Z,93.21
2023-05-08T03:21:56.877Z,93.46
2023-05-08T03:24:26.618Z,93.15
2023-05-08T03:26:56.376Z,93.28
2023-05-08T03:29:27.058Z,93.14
2023-05-08T03:31:56.982Z,93.33
2023-05-08T03:34:25.431Z,93.37
2023-05-08T03:36:54.790Z,93.61
2023-05-08T03:39:26.400Z,94.21
2023-05-08T03:41:56.768Z,94.45
2023-05-08T03:44:26.249Z,94.24
2023-05-08T03:46:57.830Z,94.85
2023-05-08T03:49:28.379Z,95.09
2023-05-08T03:52:01.836Z,95.04
2023-05-08T03:54:30.202Z,95.30
2023-05-08T03:57:23.163Z,95.18
2023-05-08T04:00:01.061Z,95.24
2023-05-08T04:02:35.150Z,95.24
2023-05-08T04:05:15.536Z,95.82
2023-05-08T04:07:51.734Z,95.83
2023-05-08T04:10:25.554Z,95.89
2023-05-08T04:12:58.686Z,95.70
2023-05-08T04:15:30.100Z,95.35
2023-05-08T04:18:04.207Z,95.38
2023-05-08T04:20:34.409Z,95.64
2023-05-08T04:23:05.441Z,95.75
2023-05-08T04:25:37.078Z,95.55
2023-05-08T04:28:06.379Z,95.89
2023-05-08T04:30:35.560Z,95.79
2023-05-08T04:33:05.722Z,95.70
2023-05-08T04:35:34.916Z,95.60
2023-05-08T04:38:04.728Z,95.96
2023-05-08T04:40:33.207Z,96.13
2023-05-08T04:43:01.829Z,96.00
2023-05-08T04:45:31.295Z,95.92
2023-05-08T04:47:59.558Z,95.97
2023-05-08T04:50:27.480Z,95.77
2023-05-08T04:52:55.689Z,95.79
2023-05-08T04:55:25.416Z,96.14
2023-05-08T04:57:53.495Z,95.99
2023-05-08T05:00:23.544Z,96.60
2023-05-08T05:02:51.643Z,96.97
2023-05-08T05:05:19.577Z,97.02
2023-05-08T05:07:47.376Z,97.50
2023-05-08T05:10:18.505Z,97.36
2023-05-08T05:12:48.650Z,97.67
2023-05-08T05:15:16.600Z,97.83
2023-05-08T05:17:44.258Z,98.19
2023-05-08T05:20:13.603Z,98.47
2023-05-08T05:22:42.460Z,98.52
2023-05-08T05:25:10.874Z,98.49
2023-05-08T05:27:39.045Z,98.44
2023-05-08T05:30:10.450Z,98.34
2023-05-08T05:32:39.326Z,98.29
2023-05-08T05:35:08.713Z,98.78
2023-05-08T05:37:37.600Z,98.82
2023-05-08T05:40:06.424Z,99.04
2023-05-08T05:42:35.718Z,98.78
2023-05-08T05:45:32.528Z,98.96
2023-05-08T05:48:01.057Z,99.06
2023-05-08T05:50:29.402Z,99.26
2023-05-08T05:52:57.961Z,99.20
2023-05-08T05:55:28.409Z,99.18
2023-05-08T05:57:58.856Z,99.26
2023-05-08T06:00:53.403Z,99.33
2023-05-08T06:03:21.549Z,99.18
2023-05-08T06:06:16.404Z,98.76
2023-05-08T06:08:44.145Z,98.98
2023-05-08T06:11:12.651Z,98.42
2023-05-08T06:13:41.393Z,98.37
2023-05-08T06:16:10.730Z,98.00
2023-05-08T06:18:38.298Z,97.76
2023-05-08T06:21:06.009Z,97.45
2023-05-08T06:23:33.699Z,97.33
2023-05-08T06:26:01.268Z,97.40
2023-05-08T06:28:29.507Z,96.98
2023-05-08T06:30:57.293Z,96.98
2023-05-08T06:33:27.025Z,97.08
2023-05-08T06:35:55.061Z,97.23
2023-05-08T06:41:15.415Z,96.56
2023-05-08T06:43:45.396Z,95.77
2023-05-08T06:46:13.078Z,96.17
2023-05-08T06:48:42.234Z,96.26
2023-05-08T06:51:09.850Z,95.82
2023-05-08T06:53:38.407Z,95.09
2023-05-08T06:56:06.809Z,95.19
2023-05-08T06:58:36.396Z,94.99
2023-05-08T07:01:04.097Z,95.34
2023-05-08T07:03:34.428Z,95.59
2023-05-08T07:06:04.468Z,95.17
2023-05-08T07:08:32.800Z,95.08
2023-05-08T07:11:00.408Z,95.55
2023-05-08T07:13:28.581Z,96.01
2023-05-08T07:15:58.452Z,96.55
2023-05-08T07:18:27.027Z,95.38
2023-05-08T07:20:54.623Z,94.45
2023-05-08T07:23:23.755Z,93.07
2023-05-08T07:25:53.429Z,93.15
2023-05-08T07:28:21.010Z,93.53
2023-05-08T07:30:52.403Z,93.94
2023-05-08T07:33:20.304Z,93.61
2023-05-08T07:35:47.888Z,93.17
2023-05-08T07:38:15.448Z,92.98
2023-05-08T07:40:44.530Z,92.79
2023-05-08T07:43:13.101Z,92.80
2023-05-08T07:45:40.899Z,92.96
2023-05-08T07:48:08.860Z,93.19
2023-05-08T07:50:37.263Z,93.02
2023-05-08T07:53:04.931Z,93.21
2023-05-08T07:55:32.773Z,92.69
2023-05-08T07:58:04.404Z,91.71
2023-05-08T08:00:32.070Z,91.40
2023-05-08T08:03:00.684Z,90.29
2023-05-08T08:05:28.636Z,90.24
2023-05-08T08:07:56.231Z,90.72
2023-05-08T08:10:23.966Z,90.63
2023-05-08T08:12:52.528Z,90.83
2023-05-08T08:15:21.870Z,90.73
2023-05-08T08:17:49.802Z,90.70
2023-05-08T08:20:18.256Z,91.07
2023-05-08T08:22:45.864Z,91.24
2023-05-08T08:25:15.508Z,91.18
2023-05-08T08:27:44.847Z,90.47
2023-05-08T08:30:18.282Z,90.20
2023-05-08T08:32:49.460Z,90.22
2023-05-08T08:35:18.198Z,90.19
2023-05-08T08:37:46.067Z,90.24
2023-05-08T08:40:13.900Z,89.88
2023-05-08T08:42:43.433Z,89.75
2023-05-08T08:45:12.137Z,89.73
2023-05-08T08:47:41.539Z,90.46
2023-05-08T08:50:14.714Z,90.81
2023-05-08T08:52:49.206Z,90.73
2023-05-08T08:55:18.922Z,90.57
2023-05-08T08:57:55.593Z,89.58
2023-05-08T09:00:26.725Z,89.95
2023-05-08T09:02:54.652Z,89.42
2023-05-08T09:05:26.473Z,89.75
2023-05-08T09:07:56.415Z,88.69
2023-05-08T09:10:25.713Z,89.00
2023-05-08T09:15:49.003Z,88.92
2023-05-08T09:18:17.426Z,88.54
2023-05-08T09:20:49.791Z,87.98
2023-05-08T09:23:18.024Z,87.31
2023-05-08T09:25:46.517Z,86.93
2023-05-08T09:28:20.574Z,89.64
2023-05-08T09:30:56.847Z,90.64
2023-05-08T09:33:27.520Z,90.49
2023-05-08T09:35:58.641Z,86.99
2023-05-08T09:38:35.480Z,86.33
2023-05-08T09:41:10.941Z,85.52
2023-05-08T09:43:39.254Z,84.47
2023-05-08T09:46:22.913Z,84.68
2023-05-08T09:48:50.912Z,84.06
2023-05-08T09:51:20.429Z,83.61
2023-05-08T09:53:48.249Z,83.77
2023-05-08T09:56:16.007Z,82.67
2023-05-08T09:58:46.544Z,82.19
2023-05-08T10:01:29.615Z,82.58
2023-05-08T10:03:57.289Z,81.62
2023-05-08T10:06:28.275Z,81.51
2023-05-08T10:09:12.141Z,81.20
2023-05-08T10:11:40.745Z,81.02
2023-05-08T10:14:10.511Z,80.89
2023-05-08T10:16:42.802Z,81.06
2023-05-08T10:19:17.505Z,81.11
2023-05-08T10:21:50.435Z,81.58
2023-05-08T10:24:21.058Z,81.87
2023-05-08T10:27:06.178Z,80.79
2023-05-08T10:29:43.379Z,80.69
2023-05-08T10:32:11.644Z,80.30
2023-05-08T10:34:41.494Z,80.02
2023-05-08T10:37:11.683Z,80.04
2023-05-08T10:39:41.216Z,80.46
2023-05-08T10:42:10.433Z,81.37
2023-05-08T10:44:39.420Z,81.40
2023-05-08T10:47:14.159Z,81.31
2023-05-08T10:49:50.479Z,81.58
2023-05-08T10:52:31.513Z,81.58
2023-05-08T10:55:17.557Z,82.24
2023-05-08T10:58:03.738Z,82.78
2023-05-08T11:01:13.803Z,82.95
2023-05-08T11:03:44.165Z,82.69
2023-05-08T11:06:12.793Z,83.12
2023-05-08T11:08:52.445Z,82.81
2023-05-08T11:11:27.731Z,82.30
2023-05-08T11:14:00.765Z,82.03
2023-05-08T11:17:05.113Z,81.58
2023-05-08T11:19:33.525Z,81.37
2023-05-08T11:22:25.835Z,82.05
2023-05-08T11:24:59.796Z,82.94
2023-05-08T11:27:38.705Z,83.36
2023-05-08T11:30:38.565Z,83.89
2023-05-08T11:33:17.109Z,85.10
2023-05-08T11:35:51.562Z,84.97
2023-05-08T11:38:27.509Z,84.42
2023-05-08T11:41:08.131Z,84.63
2023-05-08T11:44:17.648Z,84.35
2023-05-08T11:46:50.735Z,84.74
2023-05-08T11:49:24.505Z,84.00
2023-05-08T11:51:55.172Z,83.54
2023-05-08T11:54:24.450Z,84.01
2023-05-08T11:56:55.114Z,83.51
2023-05-08T11:59:22.975Z,83.27
2023-05-08T12:04:24.562Z,82.64
2023-05-08T12:06:58.413Z,82.59
2023-05-08T12:09:27.145Z,82.58
2023-05-08T12:12:00.431Z,82.33
2023-05-08T12:14:28.444Z,82.82
2023-05-08T12:16:56.091Z,82.68
2023-05-08T12:19:24.468Z,82.00
2023-05-08T12:21:52.869Z,81.43
2023-05-08T12:24:23.095Z,80.83
2023-05-08T12:26:54.128Z,79.45
2023-05-08T12:29:24.003Z,78.72
2023-05-08T12:31:54.499Z,78.81
2023-05-08T12:34:23.477Z,78.92
2023-05-08T12:37:02.819Z,79.27
2023-05-08T12:39:37.591Z,79.53
2023-05-08T12:42:06.460Z,78.80
2023-05-08T12:44:36.259Z,78.71
2023-05-08T12:47:06.020Z,79.53
2023-05-08T12:49:33.986Z,78.89
2023-05-08T12:52:03.608Z,78.38
2023-05-08T12:54:37.028Z,77.97
2023-05-08T12:57:10.904Z,78.37
2023-05-08T12:59:40.883Z,78.39
2023-05-08T13:02:14.365Z,78.03
2023-05-08T13:04:42.146Z,78.81
2023-05-08T13:07:10.566Z,78.50
2023-05-08T13:09:39.581Z,78.01
2023-05-08T13:12:08.491Z,78.11
2023-05-08T13:14:36.063Z,78.24
2023-05-08T13:17:05.004Z,78.42
2023-05-08T13:19:32.543Z,78.30
2023-05-08T13:22:01.839Z,78.19
2023-05-08T13:24:29.536Z,77.77
2023-05-08T13:27:01.444Z,77.82
2023-05-08T13:29:29.528Z,77.81
2023-05-08T13:31:57.987Z,78.55
2023-05-08T13:34:28.477Z,78.92
2023-05-08T13:36:57.449Z,79.43
2023-05-08T13:39:25.036Z,79.23
2023-05-08T13:41:54.512Z,80.05
2023-05-08T13:44:22.087Z,80.42
2023-05-08T13:46:50.008Z,80.83
2023-05-08T13:49:19.144Z,81.02
2023-05-08T13:51:56.440Z,81.06
2023-05-08T13:54:26.545Z,80.96
2023-05-08T13:56:54.145Z,81.30
2023-05-08T13:59:21.920Z,80.91
2023-05-08T14:01:50.906Z,80.36
2023-05-08T14:04:19.100Z,80.60
2023-05-08T14:06:48.279Z,80.88
2023-05-08T14:09:15.837Z,80.62
2023-05-08T14:11:44.076Z,79.51
2023-05-08T14:14:11.640Z,78.91
2023-05-08T14:16:40.147Z,79.37
2023-05-08T14:19:07.816Z,79.47
2023-05-08T14:21:36.702Z,77.68
2023-05-08T14:24:06.604Z,77.59
2023-05-08T14:26:36.551Z,77.54
2023-05-08T14:29:05.104Z,77.67
2023-05-08T14:31:32.769Z,78.55
2023-05-08T14:34:01.153Z,78.35
2023-05-08T14:36:28.731Z,78.14
2023-05-08T14:38:57.561Z,76.65
2023-05-08T14:41:29.961Z,76.26
2023-05-08T14:43:58.759Z,75.63
2023-05-08T14:46:26.510Z,75.33
2023-05-08T14:49:32.763Z,75.66
2023-05-08T14:52:05.585Z,75.26
2023-05-08T14:55:01.670Z,75.08
2023-05-08T14:57:30.833Z,76.38
2023-05-08T14:59:58.410Z,76.42
2023-05-08T15:02:27.134Z,75.92
2023-05-08T15:04:55.600Z,76.20
2023-05-08T15:07:23.204Z,76.19
2023-05-08T15:09:53.464Z,75.71
2023-05-08T15:12:49.168Z,75.17
2023-05-08T15:15:17.204Z,75.64
2023-05-08T15:17:44.805Z,75.96
2023-05-08T15:20:13.573Z,75.62
2023-05-08T15:22:41.656Z,74.58
2023-05-08T15:25:10.478Z,72.68
2023-05-08T15:27:38.094Z,73.50
2023-05-08T15:30:10.485Z,73.44
2023-05-08T15:32:40.208Z,72.68
2023-05-08T15:35:08.534Z,73.07
2023-05-08T15:37:38.307Z,74.01
2023-05-08T15:40:07.198Z,72.71
2023-05-08T15:42:35.480Z,70.66
2023-05-08T15:45:04.068Z,70.16
2023-05-08T15:47:33.266Z,69.79
2023-05-08T15:50:01.076Z,70.57
2023-05-08T15:52:32.506Z,71.99
2023-05-08T15:55:00.065Z,72.72
2023-05-08T15:57:29.849Z,72.92
2023-05-08T15:59:57.570Z,73.87
2023-05-08T16:02:25.353Z,74.20
2023-05-08T16:04:54.521Z,73.97
2023-05-08T16:07:22.596Z,75.16
2023-05-08T16:09:50.273Z,74.75
2023-05-08T16:12:19.753Z,74.53
2023-05-08T16:14:47.628Z,74.15
2023-05-08T16:17:15.395Z,74.16
2023-05-08T16:19:42.961Z,74.43
2023-05-08T16:22:13.483Z,75.10
2023-05-08T16:24:41.289Z,75.13
2023-05-08T16:27:08.863Z,75.10
2023-05-08T16:29:36.968Z,75.22
2023-05-08T16:32:04.702Z,75.81
2023-05-08T16:34:32.351Z,76.59
2023-05-08T16:36:59.993Z,76.95
2023-05-08T16:39:29.498Z,77.89
2023-05-08T16:41:58.067Z,77.48
2023-05-08T16:44:25.621Z,77.77
2023-05-08T16:46:53.364Z,77.98
2023-05-08T16:49:21.042Z,77.95
2023-05-08T16:51:48.681Z,77.89
2023-05-08T16:54:17.985Z,78.03
2023-05-08T16:56:47.506Z,78.39
2023-05-08T16:59:15.121Z,78.59
2023-05-08T17:01:42.927Z,78.40
2023-05-08T17:04:12.475Z,79.09
2023-05-08T17:06:40.711Z,79.54
2023-05-08T17:09:08.353Z,79.86
2023-05-08T17:11:36.143Z,80.35
2023-05-08T17:14:05.485Z,79.91
2023-05-08T17:16:33.668Z,79.39
2023-05-08T17:19:01.492Z,79.71
2023-05-08T17:21:30.922Z,79.88
2023-05-08T17:24:00.264Z,80.01
2023-05-08T17:26:28.577Z,79.77
2023-05-08T17:28:56.159Z,79.51
2023-05-08T17:31:25.593Z,79.12
2023-05-08T17:33:53.474Z,79.39
2023-05-08T17:36:21.566Z,79.38
2023-05-08T17:38:50.440Z,79.42
2023-05-08T17:41:18.049Z,78.49
2023-05-08T17:43:45.626Z,78.34
2023-05-08T17:46:14.631Z,78.27
2023-05-08T17:48:43.603Z,78.22
2023-05-08T17:51:13.221Z,78.70
2023-05-08T17:53:41.218Z,78.67
2023-05-08T17:56:09.414Z,78.66
2023-05-08T17:58:38.999Z,78.48
2023-05-08T18:01:07.821Z,78.35
2023-05-08T18:03:38.025Z,78.12
2023-05-08T18:06:07.384Z,78.41
2023-05-08T18:08:35.430Z,77.93
2023-05-08T18:11:03.134Z,77.73
2023-05-08T18:13:31.490Z,78.01
2023-05-08T18:16:01.173Z,77.93
2023-05-08T18:18:29.695Z,77.71
2023-05-08T18:20:57.277Z,78.24
2023-05-08T18:23:26.338Z,78.36
2023-05-08T18:25:55.490Z,78.42
2023-05-08T18:28:24.251Z,78.97
2023-05-08T18:30:51.886Z,79.06
2023-05-08T18:33:19.495Z,79.48
2023-05-08T18:35:48.933Z,79.99
2023-05-08T18:38:17.545Z,80.58
2023-05-08T18:40:47.421Z,81.89
2023-05-08T18:43:15.365Z,82.97
2023-05-08T18:45:46.577Z,83.39
2023-05-08T18:48:14.203Z,83.38
2023-05-08T18:50:41.827Z,83.80
2023-05-08T18:53:09.759Z,84.19
2023-05-08T18:55:37.673Z,84.39
2023-05-08T18:58:07.131Z,84.22
2023-05-08T19:00:35.528Z,84.97
2023-05-08T19:03:03.261Z,85.20
2023-05-08T19:05:31.354Z,85.58
2023-05-08T19:07:59.002Z,85.59
2023-05-08T19:10:26.885Z,85.77
2023-05-08T19:12:54.485Z,86.21
2023-05-08T19:15:24.520Z,86.84
2023-05-08T19:17:52.760Z,87.08
2023-05-08T19:20:20.836Z,87.12
2023-05-08T19:22:48.571Z,86.84
2023-05-08T19:25:17.567Z,87.06
2023-05-08T19:27:45.194Z,87.80
2023-05-08T19:30:13.630Z,89.07
2023-05-08T19:32:43.110Z,90.34
2023-05-08T19:35:12.618Z,90.39
2023-05-08T19:37:41.186Z,90.51
2023-05-08T19:40:10.970Z,90.37
2023-05-08T19:42:39.135Z,90.53
2023-05-08T19:45:08.602Z,91.03
2023-05-08T19:47:36.374Z,90.82
2023-05-08T19:50:07.721Z,91.19
2023-05-08T19:52:35.877Z,91.30
2023-05-08T19:55:03.466Z,91.61
2023-05-08T19:57:31.132Z,91.51
2023-05-08T19:59:58.845Z,91.99
2023-05-08T20:02:26.708Z,92.12
2023-05-08T20:05:18.561Z,91.90
2023-05-08T20:07:44.527Z,92.09
2023-05-08T20:10:12.582Z,92.63
2023-05-08T20:12:40.649Z,92.98
2023-05-08T20:15:09.787Z,93.36
2023-05-08T20:17:37.506Z,94.02
2023-05-08T20:20:06.072Z,94.50
2023-05-08T20:22:33.790Z,95.24
2023-05-08T20:25:04.668Z,95.58
2023-05-08T20:27:32.588Z,96.02
2023-05-08T20:30:01.001Z,96.25
2023-05-08T20:32:28.791Z,96.76
2023-05-08T20:34:56.928Z,97.11
2023-05-08T20:37:25.420Z,97.40
2023-05-08T20:39:53.167Z,96.98
2023-05-08T20:42:22.156Z,96.59
2023-05-08T20:44:49.717Z,95.91
2023-05-08T20:47:18.022Z,95.97
2023-05-08T20:49:46.505Z,95.92
2023-05-08T20:52:14.117Z,97.04
2023-05-08T20:54:44.318Z,97.88
2023-05-08T20:57:12.853Z,98.37
2023-05-08T20:59:41.756Z,99.00
2023-05-08T21:02:09.515Z,99.80
2023-05-08T21:04:38.008Z,100.00
2023-05-08T21:07:06.093Z,100.00
2023-05-08T21:09:33.835Z,100.00
2023-05-08T21:12:02.493Z,100.00
2023-05-08T21:14:31.916Z,100.00
2023-05-08T21:17:01.693Z,100.00
2023-05-08T21:19:31.542Z,100.00
2023-05-08T21:22:00.135Z,100.00
2023-05-08T21:24:27.786Z,100.00
2023-05-08T21:26:56.020Z,100.00
2023-05-08T21:29:23.611Z,100.00
2023-05-08T21:31:51.245Z,100.00
2023-05-08T21:34:21.256Z,100.00
2023-05-08T21:36:49.336Z,100.00
2023-05-08T21:39:16.931Z,100.00
2023-05-08T21:41:48.531Z,100.00
2023-05-08T21:44:16.328Z,100.00
2023-05-08T21:49:37.031Z,100.00
2023-05-08T21:52:04.816Z,100.00
2023-05-08T21:54:32.552Z,100.00
2023-05-08T21:57:03.552Z,100.00
2023-05-08T21:59:31.195Z,100.00
2023-05-08T22:01:58.941Z,100.00
2023-05-08T22:04:26.540Z,100.00
2023-05-08T22:06:55.639Z,100.00
2023-05-08T22:09:23.247Z,100.00
2023-05-08T22:11:50.924Z,100.00
2023-05-08T22:14:18.713Z,100.00
2023-05-08T22:16:47.286Z,100.00
2023-05-08T22:19:15.086Z,100.00
2023-05-08T22:21:43.409Z,100.00
2023-05-08T22:24:14.871Z,100.00
2023-05-08T22:26:42.688Z,100.00
2023-05-08T22:29:10.221Z,100.00
2023-05-08T22:37:22.258Z,100.00
2023-05-08T22:39:51.192Z,100.00
2023-05-08T22:42:19.312Z,100.00
2023-05-08T22:44:46.923Z,100.00
2023-05-08T22:47:15.407Z,100.00
2023-05-08T22:49:43.824Z,100.00
2023-05-08T22:52:11.525Z,100.00
2023-05-08T22:54:43.015Z,100.00
2023-05-08T22:57:11.969Z,100.00
2023-05-08T22:59:40.109Z,100.00
2023-05-08T23:02:07.999Z,100.00
2023-05-08T23:04:36.076Z,100.00
2023-05-08T23:07:04.606Z,100.00
2023-05-08T23:09:33.160Z,100.00
2023-05-08T23:12:00.755Z,100.00
2023-05-08T23:14:29.702Z,100.00
2023-05-08T23:16:57.376Z,100.00
2023-05-08T23:19:25.046Z,100.00
2023-05-08T23:21:52.691Z,100.00
2023-05-08T23:24:20.550Z,100.00
2023-05-08T23:26:49.560Z,100.00
2023-05-08T23:29:17.218Z,100.00
2023-05-08T23:31:46.195Z,100.00
2023-05-08T23:34:13.800Z,100.00
2023-05-08T23:36:41.619Z,100.00
2023-05-08T23:39:12.936Z,100.00
2023-05-08T23:41:40.527Z,100.00
2023-05-08T23:44:08.216Z,100.00
2023-05-08T23:46:36.098Z,100.00
2023-05-08T23:49:05.642Z,100.00
2023-05-08T23:51:34.059Z,100.00
2023-05-08T23:54:03.184Z,100.00
2023-05-08T23:56:30.960Z,100.00
2023-05-08T23:58:58.502Z,100.00
